Ana Sayfa
METAR-TAF:

METAR-TAF

Havaalanları :

Townsville, Avustralya

Enlem: 19-15S, Boylam: 146-45E, yükseklik: 6 m

Güncel hava durumu gözlemi

Rapor saat 07:00 UTC de 7 dakika önce yapıldı.
Rüzgar kuzeydoğudan 9 kt
Sıcaklık 30°C
Nem 66%
Basınç 1006 hPa
Görüş mesafesi 10 km veya daha fazla

METAR: YBTL 140700Z AUTO 04009KT 9999 // NCD 30/23 Q1006

Saat: 17:07 (07:07 UTC)

Tahmin

Rapor saat 05:30 UTC de 1 saat ve 37 dakika önce yapıldı.
Ayın 14'si saat 06 UTC'den ayın 15'si saat 06 UTC'ye kadar geçerli Tahmin
Rüzgar kuzey/kuzeydoğudan 14 kt
Görüş mesafesi 10 km veya daha fazla
3000 ft yükseklikte az bulutlu
Ayın 14'si saat 0900 UTC'den
Rüzgar kuzeydan 8 kt
Görüş mesafesi 10 km veya daha fazla
2000 ft yükseklikte parçalı çok bulutlu
Ayın 14'si saat 2300 UTC'den
Rüzgar kuzeydoğudan 8 kt
Görüş mesafesi 10 km veya daha fazla
2500 ft yükseklikte parçalı bulutlu

TAF: YBTL 140530Z 1406/1506 02014KT 9999 FEW030 FM140900 01008KT 9999 BKN020 FM142300 04008KT 9999 SCT025

4.000'den fazla havaalanı için hava durumu gözlemleri ve tahminleri (METAR ve TAF raporları).

Kullanılabilir istasyonlar harita üzerinde sarı ve kırmızı noktalarla gösterilir.

İstasyonun adını görmek için fareyi noktanın üzerinde gezdirin.

Sonrasında hava gözlem ve tahminlerini görmek için tıklayın.

Haritayı değiştirmek için: yaklaştırmak için siyah artı işaretli yeşil düğmeye ve uzaklaştırmak için de eksi işaretli düğmeye hızla tıklayın; bitişik haritalar için yeşil okları kullanın.


METAR-TAF: